sensor_id;sensor_type;location;lat;lon;timestamp;P1;durP1;ratioP1;P2;durP2;ratioP2
727;SDS011;347;48.780;9.158;2024-02-21T00:00:16;14.07;;;10.33;;
727;SDS011;347;48.780;9.158;2024-02-21T00:02:42;10.40;;;9.43;;
727;SDS011;347;48.780;9.158;2024-02-21T00:05:07;10.90;;;10.10;;
727;SDS011;347;48.780;9.158;2024-02-21T00:07:33;11.23;;;10.20;;
727;SDS011;347;48.780;9.158;2024-02-21T00:09:58;10.57;;;9.73;;
727;SDS011;347;48.780;9.158;2024-02-21T00:12:24;11.37;;;9.70;;
727;SDS011;347;48.780;9.158;2024-02-21T00:14:49;11.13;;;10.07;;
727;SDS011;347;48.780;9.158;2024-02-21T00:17:15;9.10;;;8.50;;
727;SDS011;347;48.780;9.158;2024-02-21T00:19:41;10.73;;;10.03;;
727;SDS011;347;48.780;9.158;2024-02-21T00:22:06;9.73;;;8.93;;
727;SDS011;347;48.780;9.158;2024-02-21T00:24:33;9.03;;;8.43;;
727;SDS011;347;48.780;9.158;2024-02-21T00:26:58;10.60;;;9.57;;
727;SDS011;347;48.780;9.158;2024-02-21T00:29:24;9.47;;;8.63;;
727;SDS011;347;48.780;9.158;2024-02-21T00:31:49;8.60;;;7.90;;
727;SDS011;347;48.780;9.158;2024-02-21T00:34:15;9.47;;;8.87;;
727;SDS011;347;48.780;9.158;2024-02-21T00:36:41;9.60;;;8.73;;
727;SDS011;347;48.780;9.158;2024-02-21T00:39:06;9.83;;;9.20;;
727;SDS011;347;48.780;9.158;2024-02-21T00:41:32;9.67;;;8.70;;
727;SDS011;347;48.780;9.158;2024-02-21T00:43:58;9.80;;;9.03;;
727;SDS011;347;48.780;9.158;2024-02-21T00:46:23;10.17;;;9.07;;
727;SDS011;347;48.780;9.158;2024-02-21T00:48:49;9.67;;;8.97;;
727;SDS011;347;48.780;9.158;2024-02-21T00:51:15;10.53;;;9.53;;
727;SDS011;347;48.780;9.158;2024-02-21T00:53:41;10.30;;;9.47;;
727;SDS011;347;48.780;9.158;2024-02-21T00:56:07;9.70;;;9.00;;
727;SDS011;347;48.780;9.158;2024-02-21T00:58:33;10.60;;;9.70;;
727;SDS011;347;48.780;9.158;2024-02-21T01:01:00;10.33;;;9.57;;
727;SDS011;347;48.780;9.158;2024-02-21T01:03:26;9.50;;;8.90;;
727;SDS011;347;48.780;9.158;2024-02-21T01:05:51;11.57;;;10.37;;
727;SDS011;347;48.780;9.158;2024-02-21T01:08:17;10.20;;;9.30;;
727;SDS011;347;48.780;9.158;2024-02-21T01:10:42;10.10;;;9.37;;
727;SDS011;347;48.780;9.158;2024-02-21T01:13:08;10.80;;;9.90;;
727;SDS011;347;48.780;9.158;2024-02-21T01:15:34;10.33;;;9.60;;
727;SDS011;347;48.780;9.158;2024-02-21T01:18:00;10.73;;;9.53;;
727;SDS011;347;48.780;9.158;2024-02-21T01:20:26;11.60;;;10.60;;
727;SDS011;347;48.780;9.158;2024-02-21T01:22:51;11.47;;;9.70;;
727;SDS011;347;48.780;9.158;2024-02-21T01:25:17;10.63;;;9.70;;
727;SDS011;347;48.780;9.158;2024-02-21T01:27:42;11.77;;;10.87;;
727;SDS011;347;48.780;9.158;2024-02-21T01:30:08;10.37;;;9.53;;
727;SDS011;347;48.780;9.158;2024-02-21T01:32:35;9.83;;;9.00;;
727;SDS011;347;48.780;9.158;2024-02-21T01:35:01;10.13;;;9.23;;
727;SDS011;347;48.780;9.158;2024-02-21T01:37:26;9.60;;;8.80;;
727;SDS011;347;48.780;9.158;2024-02-21T01:39:52;10.80;;;9.97;;
727;SDS011;347;48.780;9.158;2024-02-21T01:42:18;10.70;;;9.80;;
727;SDS011;347;48.780;9.158;2024-02-21T01:44:44;13.20;;;9.80;;
727;SDS011;347;48.780;9.158;2024-02-21T01:47:10;10.33;;;9.50;;
727;SDS011;347;48.780;9.158;2024-02-21T01:49:38;10.83;;;9.80;;
727;SDS011;347;48.780;9.158;2024-02-21T01:52:05;11.17;;;9.97;;
727;SDS011;347;48.780;9.158;2024-02-21T01:54:31;9.50;;;8.60;;
727;SDS011;347;48.780;9.158;2024-02-21T01:56:57;9.37;;;8.53;;
727;SDS011;347;48.780;9.158;2024-02-21T01:59:23;9.63;;;8.97;;
727;SDS011;347;48.780;9.158;2024-02-21T02:01:48;9.70;;;8.77;;
727;SDS011;347;48.780;9.158;2024-02-21T02:04:16;9.90;;;8.97;;
727;SDS011;347;48.780;9.158;2024-02-21T02:06:41;9.20;;;8.50;;
727;SDS011;347;48.780;9.158;2024-02-21T02:09:07;9.60;;;8.80;;
727;SDS011;347;48.780;9.158;2024-02-21T02:11:33;10.13;;;9.30;;
727;SDS011;347;48.780;9.158;2024-02-21T02:13:59;10.40;;;9.60;;
727;SDS011;347;48.780;9.158;2024-02-21T02:16:24;10.23;;;9.50;;
727;SDS011;347;48.780;9.158;2024-02-21T02:18:50;9.37;;;8.47;;
727;SDS011;347;48.780;9.158;2024-02-21T02:21:27;10.53;;;9.70;;
727;SDS011;347;48.780;9.158;2024-02-21T02:23:54;10.00;;;9.20;;
727;SDS011;347;48.780;9.158;2024-02-21T02:26:21;9.83;;;9.03;;
727;SDS011;347;48.780;9.158;2024-02-21T02:28:46;10.20;;;9.40;;
727;SDS011;347;48.780;9.158;2024-02-21T02:31:12;10.13;;;8.47;;
727;SDS011;347;48.780;9.158;2024-02-21T02:33:37;10.13;;;9.20;;
727;SDS011;347;48.780;9.158;2024-02-21T02:36:03;9.47;;;8.73;;
727;SDS011;347;48.780;9.158;2024-02-21T02:38:29;9.97;;;9.20;;
727;SDS011;347;48.780;9.158;2024-02-21T02:40:54;9.40;;;8.70;;
727;SDS011;347;48.780;9.158;2024-02-21T02:43:20;10.27;;;9.50;;
727;SDS011;347;48.780;9.158;2024-02-21T02:45:45;9.77;;;8.90;;
727;SDS011;347;48.780;9.158;2024-02-21T02:48:11;9.73;;;9.00;;
727;SDS011;347;48.780;9.158;2024-02-21T02:50:36;9.57;;;9.00;;
727;SDS011;347;48.780;9.158;2024-02-21T02:53:02;9.70;;;9.00;;
727;SDS011;347;48.780;9.158;2024-02-21T02:55:28;9.90;;;9.20;;
727;SDS011;347;48.780;9.158;2024-02-21T02:57:53;10.43;;;9.63;;
727;SDS011;347;48.780;9.158;2024-02-21T03:00:19;10.43;;;9.63;;
727;SDS011;347;48.780;9.158;2024-02-21T03:02:45;9.80;;;9.00;;
727;SDS011;347;48.780;9.158;2024-02-21T03:05:13;12.67;;;10.60;;
727;SDS011;347;48.780;9.158;2024-02-21T03:07:40;10.03;;;9.40;;
727;SDS011;347;48.780;9.158;2024-02-21T03:10:07;10.70;;;9.97;;
727;SDS011;347;48.780;9.158;2024-02-21T03:12:33;11.03;;;10.23;;
727;SDS011;347;48.780;9.158;2024-02-21T03:14:58;11.30;;;10.43;;
727;SDS011;347;48.780;9.158;2024-02-21T03:17:24;10.50;;;9.53;;
727;SDS011;347;48.780;9.158;2024-02-21T03:19:51;10.23;;;9.33;;
727;SDS011;347;48.780;9.158;2024-02-21T03:22:17;10.30;;;9.63;;
727;SDS011;347;48.780;9.158;2024-02-21T03:24:43;10.63;;;10.00;;
727;SDS011;347;48.780;9.158;2024-02-21T03:27:09;10.27;;;9.63;;
727;SDS011;347;48.780;9.158;2024-02-21T03:29:34;10.43;;;9.70;;
727;SDS011;347;48.780;9.158;2024-02-21T03:32:00;10.93;;;10.10;;
727;SDS011;347;48.780;9.158;2024-02-21T03:34:25;10.77;;;10.17;;
727;SDS011;347;48.780;9.158;2024-02-21T03:36:51;10.80;;;9.90;;
727;SDS011;347;48.780;9.158;2024-02-21T03:39:16;11.43;;;10.60;;
727;SDS011;347;48.780;9.158;2024-02-21T03:41:42;11.27;;;10.47;;
727;SDS011;347;48.780;9.158;2024-02-21T03:44:08;11.30;;;10.40;;
727;SDS011;347;48.780;9.158;2024-02-21T03:46:34;10.67;;;9.97;;
727;SDS011;347;48.780;9.158;2024-02-21T03:48:59;11.00;;;10.10;;
727;SDS011;347;48.780;9.158;2024-02-21T03:51:25;11.37;;;10.67;;
727;SDS011;347;48.780;9.158;2024-02-21T03:53:51;11.23;;;10.53;;
727;SDS011;347;48.780;9.158;2024-02-21T03:56:17;11.07;;;10.33;;
727;SDS011;347;48.780;9.158;2024-02-21T03:58:42;11.30;;;10.37;;
727;SDS011;347;48.780;9.158;2024-02-21T04:01:08;11.83;;;10.73;;
727;SDS011;347;48.780;9.158;2024-02-21T04:03:33;10.27;;;9.70;;
727;SDS011;347;48.780;9.158;2024-02-21T04:05:59;9.90;;;9.20;;
727;SDS011;347;48.780;9.158;2024-02-21T04:08:25;10.80;;;10.00;;
727;SDS011;347;48.780;9.158;2024-02-21T04:10:50;11.30;;;10.50;;
727;SDS011;347;48.780;9.158;2024-02-21T04:13:16;10.40;;;9.80;;
727;SDS011;347;48.780;9.158;2024-02-21T04:15:42;10.60;;;9.67;;
727;SDS011;347;48.780;9.158;2024-02-21T04:18:07;11.40;;;10.40;;
727;SDS011;347;48.780;9.158;2024-02-21T04:20:33;10.83;;;10.00;;
727;SDS011;347;48.780;9.158;2024-02-21T04:23:00;10.83;;;10.10;;
727;SDS011;347;48.780;9.158;2024-02-21T04:25:25;10.80;;;10.00;;
727;SDS011;347;48.780;9.158;2024-02-21T04:27:51;10.37;;;9.70;;
727;SDS011;347;48.780;9.158;2024-02-21T04:30:17;11.10;;;10.30;;
727;SDS011;347;48.780;9.158;2024-02-21T04:32:42;11.30;;;10.53;;
727;SDS011;347;48.780;9.158;2024-02-21T04:35:08;10.33;;;9.60;;
727;SDS011;347;48.780;9.158;2024-02-21T04:37:33;10.27;;;9.67;;
727;SDS011;347;48.780;9.158;2024-02-21T04:39:59;11.20;;;10.07;;
727;SDS011;347;48.780;9.158;2024-02-21T04:42:25;10.87;;;10.17;;
727;SDS011;347;48.780;9.158;2024-02-21T04:44:51;9.90;;;9.00;;
727;SDS011;347;48.780;9.158;2024-02-21T04:47:17;9.97;;;9.17;;
727;SDS011;347;48.780;9.158;2024-02-21T04:49:44;9.80;;;9.10;;
727;SDS011;347;48.780;9.158;2024-02-21T04:52:09;9.83;;;9.23;;
727;SDS011;347;48.780;9.158;2024-02-21T04:54:35;11.67;;;9.10;;
727;SDS011;347;48.780;9.158;2024-02-21T04:57:00;9.30;;;8.63;;
727;SDS011;347;48.780;9.158;2024-02-21T04:59:26;10.10;;;9.40;;
727;SDS011;347;48.780;9.158;2024-02-21T05:01:51;9.37;;;8.73;;
727;SDS011;347;48.780;9.158;2024-02-21T05:04:17;9.70;;;9.00;;
727;SDS011;347;48.780;9.158;2024-02-21T05:06:43;10.63;;;10.00;;
727;SDS011;347;48.780;9.158;2024-02-21T05:09:09;9.63;;;9.03;;
727;SDS011;347;48.780;9.158;2024-02-21T05:11:35;9.47;;;8.77;;
727;SDS011;347;48.780;9.158;2024-02-21T05:14:01;10.03;;;9.47;;
727;SDS011;347;48.780;9.158;2024-02-21T05:16:27;10.23;;;9.63;;
727;SDS011;347;48.780;9.158;2024-02-21T05:18:53;10.53;;;9.83;;
727;SDS011;347;48.780;9.158;2024-02-21T05:21:18;9.37;;;8.70;;
727;SDS011;347;48.780;9.158;2024-02-21T05:23:44;9.47;;;8.90;;
727;SDS011;347;48.780;9.158;2024-02-21T05:26:09;10.63;;;10.13;;
727;SDS011;347;48.780;9.158;2024-02-21T05:28:35;10.50;;;9.60;;
727;SDS011;347;48.780;9.158;2024-02-21T05:31:00;9.60;;;9.00;;
727;SDS011;347;48.780;9.158;2024-02-21T05:33:26;9.37;;;8.77;;
727;SDS011;347;48.780;9.158;2024-02-21T05:35:52;9.13;;;8.63;;
727;SDS011;347;48.780;9.158;2024-02-21T05:38:18;10.10;;;9.40;;
727;SDS011;347;48.780;9.158;2024-02-21T05:40:46;8.53;;;8.00;;
727;SDS011;347;48.780;9.158;2024-02-21T05:43:13;8.83;;;8.23;;
727;SDS011;347;48.780;9.158;2024-02-21T05:45:38;10.07;;;9.13;;
727;SDS011;347;48.780;9.158;2024-02-21T05:48:04;8.57;;;8.07;;
727;SDS011;347;48.780;9.158;2024-02-21T05:50:30;10.37;;;8.77;;
727;SDS011;347;48.780;9.158;2024-02-21T05:52:55;8.73;;;8.30;;
727;SDS011;347;48.780;9.158;2024-02-21T05:55:21;9.53;;;8.63;;
727;SDS011;347;48.780;9.158;2024-02-21T05:57:47;9.67;;;8.93;;
727;SDS011;347;48.780;9.158;2024-02-21T06:00:13;9.40;;;8.63;;
727;SDS011;347;48.780;9.158;2024-02-21T06:02:40;9.53;;;8.83;;
727;SDS011;347;48.780;9.158;2024-02-21T06:05:06;9.40;;;8.57;;
727;SDS011;347;48.780;9.158;2024-02-21T06:07:32;9.43;;;8.73;;
727;SDS011;347;48.780;9.158;2024-02-21T06:09:58;9.00;;;8.20;;
727;SDS011;347;48.780;9.158;2024-02-21T06:12:24;8.77;;;8.13;;
727;SDS011;347;48.780;9.158;2024-02-21T06:14:50;9.63;;;8.93;;
727;SDS011;347;48.780;9.158;2024-02-21T06:17:15;9.60;;;8.73;;
727;SDS011;347;48.780;9.158;2024-02-21T06:19:42;8.70;;;8.13;;
727;SDS011;347;48.780;9.158;2024-02-21T06:22:08;9.40;;;8.73;;
727;SDS011;347;48.780;9.158;2024-02-21T06:24:34;8.40;;;7.83;;
727;SDS011;347;48.780;9.158;2024-02-21T06:27:01;9.80;;;9.17;;
727;SDS011;347;48.780;9.158;2024-02-21T06:29:30;10.03;;;9.33;;
727;SDS011;347;48.780;9.158;2024-02-21T06:31:59;10.27;;;9.37;;
727;SDS011;347;48.780;9.158;2024-02-21T06:34:24;9.40;;;8.80;;
727;SDS011;347;48.780;9.158;2024-02-21T06:36:50;10.13;;;9.40;;
727;SDS011;347;48.780;9.158;2024-02-21T06:39:16;9.60;;;8.93;;
727;SDS011;347;48.780;9.158;2024-02-21T06:41:41;9.80;;;9.30;;
727;SDS011;347;48.780;9.158;2024-02-21T06:44:07;10.60;;;9.70;;
727;SDS011;347;48.780;9.158;2024-02-21T06:46:33;9.50;;;8.90;;
727;SDS011;347;48.780;9.158;2024-02-21T06:48:59;10.67;;;9.80;;
727;SDS011;347;48.780;9.158;2024-02-21T06:51:25;9.57;;;8.67;;
727;SDS011;347;48.780;9.158;2024-02-21T06:53:52;10.20;;;9.50;;
727;SDS011;347;48.780;9.158;2024-02-21T06:56:18;10.30;;;9.57;;
727;SDS011;347;48.780;9.158;2024-02-21T06:58:43;10.70;;;10.00;;
727;SDS011;347;48.780;9.158;2024-02-21T07:01:09;9.37;;;8.80;;
727;SDS011;347;48.780;9.158;2024-02-21T07:03:35;10.77;;;9.83;;
727;SDS011;347;48.780;9.158;2024-02-21T07:06:01;9.03;;;8.43;;
727;SDS011;347;48.780;9.158;2024-02-21T07:08:27;9.47;;;8.97;;
727;SDS011;347;48.780;9.158;2024-02-21T07:10:53;10.57;;;9.77;;
727;SDS011;347;48.780;9.158;2024-02-21T07:13:18;10.23;;;9.50;;
727;SDS011;347;48.780;9.158;2024-02-21T07:15:44;11.63;;;10.50;;
727;SDS011;347;48.780;9.158;2024-02-21T07:18:09;10.60;;;10.00;;
727;SDS011;347;48.780;9.158;2024-02-21T07:20:35;9.83;;;9.03;;
727;SDS011;347;48.780;9.158;2024-02-21T07:23:03;9.33;;;8.73;;
727;SDS011;347;48.780;9.158;2024-02-21T07:25:29;9.40;;;8.80;;
727;SDS011;347;48.780;9.158;2024-02-21T07:27:55;9.40;;;8.80;;
727;SDS011;347;48.780;9.158;2024-02-21T07:30:20;9.67;;;8.97;;
727;SDS011;347;48.780;9.158;2024-02-21T07:32:49;9.37;;;8.77;;
727;SDS011;347;48.780;9.158;2024-02-21T07:35:16;21.47;;;19.73;;
727;SDS011;347;48.780;9.158;2024-02-21T07:37:44;9.60;;;8.90;;
727;SDS011;347;48.780;9.158;2024-02-21T07:40:20;10.53;;;9.70;;
727;SDS011;347;48.780;9.158;2024-02-21T07:42:46;9.50;;;9.00;;
727;SDS011;347;48.780;9.158;2024-02-21T07:45:11;9.27;;;8.60;;
727;SDS011;347;48.780;9.158;2024-02-21T07:47:37;9.87;;;8.63;;
727;SDS011;347;48.780;9.158;2024-02-21T07:50:03;9.50;;;8.70;;
727;SDS011;347;48.780;9.158;2024-02-21T07:52:29;8.97;;;8.30;;
727;SDS011;347;48.780;9.158;2024-02-21T07:54:54;9.17;;;8.47;;
727;SDS011;347;48.780;9.158;2024-02-21T07:57:20;9.20;;;8.50;;
727;SDS011;347;48.780;9.158;2024-02-21T07:59:46;9.87;;;9.07;;
727;SDS011;347;48.780;9.158;2024-02-21T08:02:13;9.80;;;8.90;;
727;SDS011;347;48.780;9.158;2024-02-21T08:04:39;10.60;;;9.60;;
727;SDS011;347;48.780;9.158;2024-02-21T08:07:04;9.53;;;8.80;;
727;SDS011;347;48.780;9.158;2024-02-21T08:09:30;9.77;;;9.07;;
727;SDS011;347;48.780;9.158;2024-02-21T08:11:55;9.37;;;8.57;;
727;SDS011;347;48.780;9.158;2024-02-21T08:14:21;9.80;;;9.10;;
727;SDS011;347;48.780;9.158;2024-02-21T08:16:49;9.20;;;8.60;;
727;SDS011;347;48.780;9.158;2024-02-21T08:19:18;9.17;;;8.37;;
727;SDS011;347;48.780;9.158;2024-02-21T08:21:44;9.20;;;8.60;;
727;SDS011;347;48.780;9.158;2024-02-21T08:24:12;9.80;;;9.27;;
727;SDS011;347;48.780;9.158;2024-02-21T08:26:40;9.10;;;8.50;;
727;SDS011;347;48.780;9.158;2024-02-21T08:29:07;10.33;;;9.40;;
727;SDS011;347;48.780;9.158;2024-02-21T08:31:32;9.60;;;8.90;;
727;SDS011;347;48.780;9.158;2024-02-21T08:33:59;11.10;;;10.10;;
727;SDS011;347;48.780;9.158;2024-02-21T08:36:31;9.53;;;8.73;;
727;SDS011;347;48.780;9.158;2024-02-21T08:39:00;10.00;;;9.23;;
727;SDS011;347;48.780;9.158;2024-02-21T08:41:29;8.77;;;8.23;;
727;SDS011;347;48.780;9.158;2024-02-21T08:43:56;9.40;;;8.60;;
727;SDS011;347;48.780;9.158;2024-02-21T08:46:21;9.97;;;9.17;;
727;SDS011;347;48.780;9.158;2024-02-21T08:48:49;8.43;;;7.73;;
727;SDS011;347;48.780;9.158;2024-02-21T08:51:16;9.13;;;8.33;;
727;SDS011;347;48.780;9.158;2024-02-21T08:53:41;9.30;;;8.40;;
727;SDS011;347;48.780;9.158;2024-02-21T08:56:07;10.00;;;9.00;;
727;SDS011;347;48.780;9.158;2024-02-21T08:58:33;9.23;;;8.37;;
727;SDS011;347;48.780;9.158;2024-02-21T09:01:00;8.00;;;7.60;;
727;SDS011;347;48.780;9.158;2024-02-21T09:03:25;8.60;;;7.77;;
727;SDS011;347;48.780;9.158;2024-02-21T09:05:51;8.00;;;7.50;;
727;SDS011;347;48.780;9.158;2024-02-21T09:08:16;9.63;;;8.60;;
727;SDS011;347;48.780;9.158;2024-02-21T09:10:43;8.40;;;7.57;;
727;SDS011;347;48.780;9.158;2024-02-21T09:13:09;8.70;;;8.00;;
727;SDS011;347;48.780;9.158;2024-02-21T09:15:34;8.83;;;8.07;;
727;SDS011;347;48.780;9.158;2024-02-21T09:18:00;8.43;;;7.80;;
727;SDS011;347;48.780;9.158;2024-02-21T09:20:34;8.20;;;7.50;;
727;SDS011;347;48.780;9.158;2024-02-21T09:23:23;8.20;;;7.53;;
727;SDS011;347;48.780;9.158;2024-02-21T09:25:52;8.97;;;8.37;;
727;SDS011;347;48.780;9.158;2024-02-21T09:28:17;8.83;;;8.23;;
727;SDS011;347;48.780;9.158;2024-02-21T09:30:43;9.77;;;8.90;;
727;SDS011;347;48.780;9.158;2024-02-21T09:33:09;9.03;;;8.50;;
727;SDS011;347;48.780;9.158;2024-02-21T09:35:34;8.77;;;8.07;;
727;SDS011;347;48.780;9.158;2024-02-21T09:38:00;9.33;;;8.63;;
727;SDS011;347;48.780;9.158;2024-02-21T09:40:26;8.87;;;8.10;;
727;SDS011;347;48.780;9.158;2024-02-21T09:42:55;12.40;;;11.50;;
727;SDS011;347;48.780;9.158;2024-02-21T09:45:33;8.83;;;8.10;;
727;SDS011;347;48.780;9.158;2024-02-21T09:50:56;8.33;;;7.70;;
727;SDS011;347;48.780;9.158;2024-02-21T09:53:24;8.43;;;7.93;;
727;SDS011;347;48.780;9.158;2024-02-21T09:55:50;8.30;;;7.70;;
727;SDS011;347;48.780;9.158;2024-02-21T09:58:16;8.50;;;7.77;;
727;SDS011;347;48.780;9.158;2024-02-21T10:00:43;9.17;;;8.53;;
727;SDS011;347;48.780;9.158;2024-02-21T10:03:26;8.23;;;7.70;;
727;SDS011;347;48.780;9.158;2024-02-21T10:05:55;8.53;;;7.93;;
727;SDS011;347;48.780;9.158;2024-02-21T10:08:20;8.90;;;8.10;;
727;SDS011;347;48.780;9.158;2024-02-21T10:10:46;8.50;;;7.90;;
727;SDS011;347;48.780;9.158;2024-02-21T10:13:30;8.70;;;8.03;;
727;SDS011;347;48.780;9.158;2024-02-21T10:18:31;9.07;;;8.40;;
727;SDS011;347;48.780;9.158;2024-02-21T10:21:07;8.50;;;7.90;;
727;SDS011;347;48.780;9.158;2024-02-21T10:23:42;7.90;;;7.40;;
727;SDS011;347;48.780;9.158;2024-02-21T10:26:09;9.30;;;8.40;;
727;SDS011;347;48.780;9.158;2024-02-21T10:28:44;8.43;;;7.90;;
727;SDS011;347;48.780;9.158;2024-02-21T10:31:20;9.53;;;8.70;;
727;SDS011;347;48.780;9.158;2024-02-21T10:34:01;8.30;;;7.90;;
727;SDS011;347;48.780;9.158;2024-02-21T10:36:30;8.30;;;7.67;;
727;SDS011;347;48.780;9.158;2024-02-21T10:38:56;8.13;;;7.53;;
727;SDS011;347;48.780;9.158;2024-02-21T10:41:22;7.63;;;7.10;;
727;SDS011;347;48.780;9.158;2024-02-21T10:43:52;7.60;;;6.93;;
727;SDS011;347;48.780;9.158;2024-02-21T10:46:19;7.23;;;6.83;;
727;SDS011;347;48.780;9.158;2024-02-21T10:48:47;6.73;;;6.33;;
727;SDS011;347;48.780;9.158;2024-02-21T10:51:19;7.67;;;6.90;;
727;SDS011;347;48.780;9.158;2024-02-21T10:53:52;8.20;;;7.47;;
727;SDS011;347;48.780;9.158;2024-02-21T10:56:38;7.50;;;7.00;;
727;SDS011;347;48.780;9.158;2024-02-21T10:59:05;6.90;;;6.40;;
727;SDS011;347;48.780;9.158;2024-02-21T11:01:32;8.27;;;7.70;;
727;SDS011;347;48.780;9.158;2024-02-21T11:03:58;7.43;;;6.93;;
727;SDS011;347;48.780;9.158;2024-02-21T11:06:26;8.03;;;7.53;;
727;SDS011;347;48.780;9.158;2024-02-21T11:11:28;7.10;;;6.70;;
727;SDS011;347;48.780;9.158;2024-02-21T11:14:08;7.80;;;7.23;;
727;SDS011;347;48.780;9.158;2024-02-21T11:16:44;7.33;;;6.83;;
727;SDS011;347;48.780;9.158;2024-02-21T11:19:18;8.67;;;8.07;;
727;SDS011;347;48.780;9.158;2024-02-21T11:21:44;9.03;;;8.07;;
727;SDS011;347;48.780;9.158;2024-02-21T11:24:09;8.53;;;7.90;;
727;SDS011;347;48.780;9.158;2024-02-21T11:26:36;8.40;;;7.77;;
727;SDS011;347;48.780;9.158;2024-02-21T11:29:02;8.00;;;7.50;;
727;SDS011;347;48.780;9.158;2024-02-21T11:31:40;6.80;;;6.40;;
727;SDS011;347;48.780;9.158;2024-02-21T11:34:10;7.97;;;7.20;;
727;SDS011;347;48.780;9.158;2024-02-21T11:36:39;7.10;;;6.63;;
727;SDS011;347;48.780;9.158;2024-02-21T11:39:12;8.00;;;7.30;;
727;SDS011;347;48.780;9.158;2024-02-21T11:41:42;6.97;;;6.57;;
727;SDS011;347;48.780;9.158;2024-02-21T11:44:08;7.90;;;7.30;;
727;SDS011;347;48.780;9.158;2024-02-21T11:46:33;7.77;;;7.27;;
727;SDS011;347;48.780;9.158;2024-02-21T11:48:59;7.93;;;7.33;;
727;SDS011;347;48.780;9.158;2024-02-21T11:51:26;7.93;;;7.33;;
727;SDS011;347;48.780;9.158;2024-02-21T11:53:52;7.90;;;7.20;;
727;SDS011;347;48.780;9.158;2024-02-21T11:56:18;8.77;;;8.20;;
727;SDS011;347;48.780;9.158;2024-02-21T11:58:45;7.90;;;7.33;;
727;SDS011;347;48.780;9.158;2024-02-21T12:01:12;7.53;;;7.03;;
727;SDS011;347;48.780;9.158;2024-02-21T12:03:39;7.63;;;7.00;;
727;SDS011;347;48.780;9.158;2024-02-21T12:06:06;8.03;;;7.53;;
727;SDS011;347;48.780;9.158;2024-02-21T12:08:44;7.07;;;6.70;;
727;SDS011;347;48.780;9.158;2024-02-21T12:11:16;7.30;;;6.93;;
727;SDS011;347;48.780;9.158;2024-02-21T12:14:03;7.23;;;6.83;;
727;SDS011;347;48.780;9.158;2024-02-21T12:16:30;7.47;;;6.97;;
727;SDS011;347;48.780;9.158;2024-02-21T12:18:56;7.30;;;6.90;;
727;SDS011;347;48.780;9.158;2024-02-21T12:21:26;7.93;;;7.53;;
727;SDS011;347;48.780;9.158;2024-02-21T12:23:55;7.33;;;6.87;;
727;SDS011;347;48.780;9.158;2024-02-21T12:26:21;7.63;;;7.23;;
727;SDS011;347;48.780;9.158;2024-02-21T12:28:56;7.20;;;6.80;;
727;SDS011;347;48.780;9.158;2024-02-21T12:31:22;7.10;;;6.80;;
727;SDS011;347;48.780;9.158;2024-02-21T12:33:47;7.07;;;6.67;;
727;SDS011;347;48.780;9.158;2024-02-21T12:36:13;7.03;;;6.63;;
727;SDS011;347;48.780;9.158;2024-02-21T12:38:39;7.40;;;7.10;;
727;SDS011;347;48.780;9.158;2024-02-21T12:41:05;6.90;;;6.60;;
727;SDS011;347;48.780;9.158;2024-02-21T12:43:30;6.37;;;5.87;;
727;SDS011;347;48.780;9.158;2024-02-21T12:45:56;8.00;;;7.60;;
727;SDS011;347;48.780;9.158;2024-02-21T12:48:22;7.63;;;7.13;;
727;SDS011;347;48.780;9.158;2024-02-21T12:50:48;7.20;;;6.70;;
727;SDS011;347;48.780;9.158;2024-02-21T12:53:18;7.23;;;6.87;;
727;SDS011;347;48.780;9.158;2024-02-21T12:55:46;7.40;;;7.00;;
727;SDS011;347;48.780;9.158;2024-02-21T12:58:13;6.83;;;6.40;;
727;SDS011;347;48.780;9.158;2024-02-21T13:00:39;7.30;;;6.80;;
727;SDS011;347;48.780;9.158;2024-02-21T13:03:04;7.80;;;7.40;;
727;SDS011;347;48.780;9.158;2024-02-21T13:05:30;7.13;;;6.83;;
727;SDS011;347;48.780;9.158;2024-02-21T13:07:57;6.67;;;6.17;;
727;SDS011;347;48.780;9.158;2024-02-21T13:10:23;6.57;;;6.17;;
727;SDS011;347;48.780;9.158;2024-02-21T13:12:51;6.90;;;6.27;;
727;SDS011;347;48.780;9.158;2024-02-21T13:15:17;6.23;;;6.00;;
727;SDS011;347;48.780;9.158;2024-02-21T13:17:43;6.73;;;6.43;;
727;SDS011;347;48.780;9.158;2024-02-21T13:20:12;9.00;;;8.30;;
727;SDS011;347;48.780;9.158;2024-02-21T13:22:38;7.13;;;6.73;;
727;SDS011;347;48.780;9.158;2024-02-21T13:25:04;6.70;;;6.40;;
727;SDS011;347;48.780;9.158;2024-02-21T13:27:32;6.73;;;6.33;;
727;SDS011;347;48.780;9.158;2024-02-21T13:29:58;7.67;;;7.10;;
727;SDS011;347;48.780;9.158;2024-02-21T13:32:25;6.37;;;6.07;;
727;SDS011;347;48.780;9.158;2024-02-21T13:34:50;7.87;;;7.37;;
727;SDS011;347;48.780;9.158;2024-02-21T13:37:17;8.60;;;7.90;;
727;SDS011;347;48.780;9.158;2024-02-21T13:39:43;7.67;;;7.23;;
727;SDS011;347;48.780;9.158;2024-02-21T13:42:08;8.73;;;7.00;;
727;SDS011;347;48.780;9.158;2024-02-21T13:44:34;6.70;;;6.40;;
727;SDS011;347;48.780;9.158;2024-02-21T13:46:59;6.50;;;6.13;;
727;SDS011;347;48.780;9.158;2024-02-21T13:49:25;6.73;;;6.40;;
727;SDS011;347;48.780;9.158;2024-02-21T13:51:51;6.43;;;6.10;;
727;SDS011;347;48.780;9.158;2024-02-21T13:54:16;5.73;;;5.53;;
727;SDS011;347;48.780;9.158;2024-02-21T13:56:44;6.43;;;6.03;;
727;SDS011;347;48.780;9.158;2024-02-21T13:59:11;5.33;;;5.03;;
727;SDS011;347;48.780;9.158;2024-02-21T14:01:38;7.63;;;6.90;;
727;SDS011;347;48.780;9.158;2024-02-21T14:04:04;6.20;;;5.73;;
727;SDS011;347;48.780;9.158;2024-02-21T14:06:29;6.00;;;5.77;;
727;SDS011;347;48.780;9.158;2024-02-21T14:08:55;6.80;;;6.50;;
727;SDS011;347;48.780;9.158;2024-02-21T14:11:21;6.80;;;6.33;;
727;SDS011;347;48.780;9.158;2024-02-21T14:13:46;6.50;;;5.97;;
727;SDS011;347;48.780;9.158;2024-02-21T14:16:12;6.70;;;6.00;;
727;SDS011;347;48.780;9.158;2024-02-21T14:18:39;7.10;;;6.50;;
727;SDS011;347;48.780;9.158;2024-02-21T14:21:08;6.00;;;5.70;;
727;SDS011;347;48.780;9.158;2024-02-21T14:23:37;6.27;;;6.07;;
727;SDS011;347;48.780;9.158;2024-02-21T14:26:05;6.10;;;5.80;;
727;SDS011;347;48.780;9.158;2024-02-21T14:28:31;6.60;;;6.20;;
727;SDS011;347;48.780;9.158;2024-02-21T14:30:58;6.83;;;6.40;;
727;SDS011;347;48.780;9.158;2024-02-21T14:33:25;6.10;;;5.87;;
727;SDS011;347;48.780;9.158;2024-02-21T14:35:51;8.17;;;7.70;;
727;SDS011;347;48.780;9.158;2024-02-21T14:38:17;6.90;;;6.50;;
727;SDS011;347;48.780;9.158;2024-02-21T14:40:44;6.60;;;6.10;;
727;SDS011;347;48.780;9.158;2024-02-21T14:43:10;7.17;;;6.87;;
727;SDS011;347;48.780;9.158;2024-02-21T14:45:39;6.77;;;6.47;;
727;SDS011;347;48.780;9.158;2024-02-21T14:48:06;5.60;;;5.40;;
727;SDS011;347;48.780;9.158;2024-02-21T14:50:32;6.37;;;6.17;;
727;SDS011;347;48.780;9.158;2024-02-21T14:52:58;6.37;;;6.10;;
727;SDS011;347;48.780;9.158;2024-02-21T14:55:24;5.90;;;5.63;;
727;SDS011;347;48.780;9.158;2024-02-21T14:57:50;6.37;;;6.00;;
727;SDS011;347;48.780;9.158;2024-02-21T15:00:16;7.10;;;6.60;;
727;SDS011;347;48.780;9.158;2024-02-21T15:02:42;7.10;;;6.80;;
727;SDS011;347;48.780;9.158;2024-02-21T15:05:08;6.87;;;6.47;;
727;SDS011;347;48.780;9.158;2024-02-21T15:07:43;5.83;;;5.50;;
727;SDS011;347;48.780;9.158;2024-02-21T15:10:12;5.67;;;5.37;;
727;SDS011;347;48.780;9.158;2024-02-21T15:12:37;5.43;;;5.03;;
727;SDS011;347;48.780;9.158;2024-02-21T15:15:03;5.40;;;5.20;;
727;SDS011;347;48.780;9.158;2024-02-21T15:17:29;5.80;;;5.60;;
727;SDS011;347;48.780;9.158;2024-02-21T15:19:54;6.37;;;5.77;;
727;SDS011;347;48.780;9.158;2024-02-21T15:22:20;5.67;;;5.47;;
727;SDS011;347;48.780;9.158;2024-02-21T15:24:47;5.57;;;5.27;;
727;SDS011;347;48.780;9.158;2024-02-21T15:27:14;5.87;;;5.63;;
727;SDS011;347;48.780;9.158;2024-02-21T15:29:40;5.73;;;5.43;;
727;SDS011;347;48.780;9.158;2024-02-21T15:32:05;5.97;;;5.77;;
727;SDS011;347;48.780;9.158;2024-02-21T15:34:31;5.43;;;5.23;;
727;SDS011;347;48.780;9.158;2024-02-21T15:36:57;5.63;;;5.40;;
727;SDS011;347;48.780;9.158;2024-02-21T15:39:23;6.10;;;5.80;;
727;SDS011;347;48.780;9.158;2024-02-21T15:41:50;5.70;;;5.40;;
727;SDS011;347;48.780;9.158;2024-02-21T15:44:15;5.13;;;4.93;;